createdAt,value
2016-12-17T00:00:03.916Z,933.09
2016-12-17T00:00:18.285Z,933.16
2016-12-17T00:00:32.717Z,933.15
2016-12-17T00:00:47.214Z,933.14
2016-12-17T00:01:01.623Z,933.13
2016-12-17T00:01:16.032Z,933.12
2016-12-17T00:01:30.429Z,933.14
2016-12-17T00:01:44.911Z,933.15
2016-12-17T00:01:59.348Z,933.16
2016-12-17T00:02:13.862Z,933.15
2016-12-17T00:02:28.321Z,933.16
2016-12-17T00:02:42.717Z,933.15
2016-12-17T00:02:57.154Z,933.13
2016-12-17T00:03:11.580Z,933.16
2016-12-17T00:03:26.061Z,933.14
2016-12-17T00:03:40.546Z,933.11
2016-12-17T00:03:54.978Z,933.14
2016-12-17T00:04:09.662Z,933.18
2016-12-17T00:04:24.154Z,933.16
2016-12-17T00:04:38.597Z,933.17
2016-12-17T00:04:53.054Z,933.16
2016-12-17T00:05:07.506Z,933.16
2016-12-17T00:05:22.170Z,933.14
2016-12-17T00:05:36.613Z,933.14
2016-12-17T00:05:51.031Z,933.15
2016-12-17T00:06:05.483Z,933.18
2016-12-17T00:06:19.934Z,933.15
2016-12-17T00:06:34.431Z,933.14
2016-12-17T00:06:48.805Z,933.15
2016-12-17T00:07:03.240Z,933.18
2016-12-17T00:07:17.704Z,933.2
2016-12-17T00:07:32.125Z,933.17
2016-12-17T00:07:46.638Z,933.2
2016-12-17T00:08:01.046Z,933.15
2016-12-17T00:08:15.598Z,933.15
2016-12-17T00:08:30.019Z,933.16
2016-12-17T00:08:44.514Z,933.16
2016-12-17T00:08:58.991Z,933.17
2016-12-17T00:09:13.484Z,933.21
2016-12-17T00:09:28.101Z,933.16
2016-12-17T00:09:42.505Z,933.18
2016-12-17T00:09:56.994Z,933.17
2016-12-17T00:10:11.543Z,933.15
2016-12-17T00:10:25.974Z,933.12
2016-12-17T00:10:40.325Z,933.12
2016-12-17T00:10:54.678Z,933.19
2016-12-17T00:11:09.109Z,933.1
2016-12-17T00:11:23.527Z,933.14
2016-12-17T00:11:38.017Z,933.15
2016-12-17T00:11:52.343Z,933.19
2016-12-17T00:12:06.710Z,933.11
2016-12-17T00:12:21.112Z,933.17
2016-12-17T00:12:35.521Z,933.12
2016-12-17T00:12:49.968Z,933.13
2016-12-17T00:13:04.467Z,933.17
2016-12-17T00:13:18.985Z,933.15
2016-12-17T00:13:33.398Z,933.14
2016-12-17T00:13:47.795Z,933.12
2016-12-17T00:14:02.129Z,933.12
2016-12-17T00:14:16.576Z,933.18
2016-12-17T00:14:30.953Z,933.16
2016-12-17T00:14:45.348Z,933.13
2016-12-17T00:14:59.803Z,933.14
2016-12-17T00:15:14.139Z,933.13
2016-12-17T00:15:28.504Z,933.16
2016-12-17T00:15:42.971Z,933.13
2016-12-17T00:15:57.316Z,933.13
2016-12-17T00:16:11.763Z,933.17
2016-12-17T00:16:26.175Z,933.19
2016-12-17T00:16:40.605Z,933.15
2016-12-17T00:16:54.950Z,933.15
2016-12-17T00:17:09.350Z,933.13
2016-12-17T00:17:23.757Z,933.1
2016-12-17T00:17:38.132Z,933.18
2016-12-17T00:17:52.477Z,933.09
2016-12-17T00:18:06.799Z,933.16
2016-12-17T00:18:21.215Z,933.14
2016-12-17T00:18:35.657Z,933.16
2016-12-17T00:18:50.027Z,933.16
2016-12-17T00:19:04.399Z,933.16
2016-12-17T00:19:19.197Z,933.15
2016-12-17T00:19:33.559Z,933.19
2016-12-17T00:19:48.018Z,933.17
2016-12-17T00:20:02.395Z,933.17
2016-12-17T00:20:16.767Z,933.12
2016-12-17T00:20:31.176Z,933.16
2016-12-17T00:20:45.514Z,933.16
2016-12-17T00:20:59.854Z,933.18
2016-12-17T00:21:14.260Z,933.18
2016-12-17T00:21:28.762Z,933.21
2016-12-17T00:21:43.220Z,933.16
2016-12-17T00:21:57.560Z,933.17
2016-12-17T00:22:11.948Z,933.19
2016-12-17T00:22:26.354Z,933.19
2016-12-17T00:22:40.675Z,933.15
2016-12-17T00:22:55.104Z,933.16
2016-12-17T00:23:09.507Z,933.17
2016-12-17T00:23:23.896Z,933.17
2016-12-17T00:23:38.370Z,933.16
2016-12-17T00:23:52.753Z,933.15
2016-12-17T00:24:07.181Z,933.19
2016-12-17T00:24:21.608Z,933.21
2016-12-17T00:24:35.911Z,933.19
2016-12-17T00:24:50.364Z,933.16
2016-12-17T00:25:04.838Z,933.14
2016-12-17T00:25:19.295Z,933.11
2016-12-17T00:25:33.647Z,933.16
2016-12-17T00:25:47.992Z,933.17
2016-12-17T00:26:02.380Z,933.1
2016-12-17T00:26:16.765Z,933.14
2016-12-17T00:26:31.141Z,933.12
2016-12-17T00:26:45.575Z,933.15
2016-12-17T00:27:00.045Z,933.14
2016-12-17T00:27:14.417Z,933.15
2016-12-17T00:27:28.801Z,933.14
2016-12-17T00:27:43.214Z,933.18
2016-12-17T00:27:57.575Z,933.13
2016-12-17T00:28:12.011Z,933.13
2016-12-17T00:28:26.399Z,933.13
2016-12-17T00:28:40.833Z,933.13
2016-12-17T00:28:55.235Z,933.16
2016-12-17T00:29:09.603Z,933.08
2016-12-17T00:29:24.004Z,933.12
2016-12-17T00:29:38.370Z,933.13
2016-12-17T00:29:52.784Z,933.1
2016-12-17T00:30:07.118Z,933.22
2016-12-17T00:30:21.533Z,933.15
2016-12-17T00:30:36.021Z,933.16
2016-12-17T00:30:50.402Z,933.13
2016-12-17T00:31:04.927Z,933.14
2016-12-17T00:31:19.342Z,933.13
2016-12-17T00:31:33.675Z,933.17
2016-12-17T00:31:48.086Z,933.15
2016-12-17T00:32:02.514Z,933.15
2016-12-17T00:32:16.934Z,933.2
2016-12-17T00:32:31.293Z,933.19
2016-12-17T00:32:45.703Z,933.23
2016-12-17T00:33:00.114Z,933.16
2016-12-17T00:33:14.580Z,933.21
2016-12-17T00:33:29.003Z,933.17
2016-12-17T00:33:43.411Z,933.14
2016-12-17T00:33:57.730Z,933.14
2016-12-17T00:34:12.053Z,933.24
2016-12-17T00:34:26.944Z,933.25
2016-12-17T00:34:41.300Z,933.2
2016-12-17T00:34:55.701Z,933.23
2016-12-17T00:35:10.125Z,933.2
2016-12-17T00:35:24.457Z,933.16
2016-12-17T00:35:38.835Z,933.2
2016-12-17T00:35:53.195Z,933.17
2016-12-17T00:36:07.613Z,933.12
2016-12-17T00:36:21.975Z,933.14
2016-12-17T00:36:36.394Z,933.2
2016-12-17T00:36:50.805Z,933.2
2016-12-17T00:37:05.164Z,933.18
2016-12-17T00:37:19.593Z,933.17
2016-12-17T00:37:34.020Z,933.19
2016-12-17T00:37:48.415Z,933.19
2016-12-17T00:38:02.824Z,933.21
2016-12-17T00:38:17.206Z,933.22
2016-12-17T00:38:31.595Z,933.2
2016-12-17T00:38:46.035Z,933.23
2016-12-17T00:39:00.485Z,933.19
2016-12-17T00:39:14.863Z,933.17
2016-12-17T00:39:29.232Z,933.2
2016-12-17T00:39:43.684Z,933.2
2016-12-17T00:39:58.095Z,933.23
2016-12-17T00:40:12.496Z,933.31
2016-12-17T00:40:26.902Z,933.28
2016-12-17T00:40:41.261Z,933.31
2016-12-17T00:40:55.628Z,933.24
2016-12-17T00:41:10.006Z,933.23
2016-12-17T00:41:24.436Z,933.23
2016-12-17T00:41:38.844Z,933.28
2016-12-17T00:41:53.356Z,933.17
2016-12-17T00:42:07.763Z,933.19
2016-12-17T00:42:22.154Z,933.22
2016-12-17T00:42:36.602Z,933.18
2016-12-17T00:42:50.998Z,933.3
2016-12-17T00:43:05.422Z,933.25
2016-12-17T00:43:19.863Z,933.24
2016-12-17T00:43:34.222Z,933.18
2016-12-17T00:43:48.586Z,933.19
2016-12-17T00:44:02.966Z,933.22
2016-12-17T00:44:17.440Z,933.2
2016-12-17T00:44:31.866Z,933.18
2016-12-17T00:44:46.229Z,933.21
2016-12-17T00:45:00.659Z,933.18
2016-12-17T00:45:15.037Z,933.21
2016-12-17T00:45:29.394Z,933.23
2016-12-17T00:45:43.837Z,933.19
2016-12-17T00:45:58.252Z,933.22
2016-12-17T00:46:12.626Z,933.17
2016-12-17T00:46:26.971Z,933.21
2016-12-17T00:46:41.393Z,933.23
2016-12-17T00:46:55.770Z,933.22
2016-12-17T00:47:10.209Z,933.17
2016-12-17T00:47:24.613Z,933.2
2016-12-17T00:47:38.955Z,933.18
2016-12-17T00:47:53.360Z,933.23
2016-12-17T00:48:07.724Z,933.24
2016-12-17T00:48:22.116Z,933.19
2016-12-17T00:48:36.538Z,933.22
2016-12-17T00:48:50.897Z,933.19
2016-12-17T00:49:05.273Z,933.18
2016-12-17T00:49:19.681Z,933.19
2016-12-17T00:49:34.359Z,933.18
2016-12-17T00:49:48.764Z,933.2
2016-12-17T00:50:03.171Z,933.21
2016-12-17T00:50:17.565Z,933.17
2016-12-17T00:50:31.934Z,933.19
2016-12-17T00:50:46.344Z,933.23
2016-12-17T00:51:00.756Z,933.18
2016-12-17T00:51:15.107Z,933.24
2016-12-17T00:51:29.562Z,933.22
2016-12-17T00:51:43.921Z,933.19
2016-12-17T00:51:58.338Z,933.18
2016-12-17T00:52:12.774Z,933.23
2016-12-17T00:52:27.214Z,933.19
2016-12-17T00:52:41.576Z,933.2
2016-12-17T00:52:56.018Z,933.21
2016-12-17T00:53:10.415Z,933.23
2016-12-17T00:53:24.845Z,933.22
2016-12-17T00:53:39.203Z,933.2
2016-12-17T00:53:53.611Z,933.18
2016-12-17T00:54:08.013Z,933.17
2016-12-17T00:54:22.387Z,933.16
2016-12-17T00:54:36.801Z,933.15
2016-12-17T00:54:51.218Z,933.14
2016-12-17T00:55:05.690Z,933.13
2016-12-17T00:55:20.013Z,933.21
2016-12-17T00:55:34.359Z,933.18
2016-12-17T00:55:48.711Z,933.15
2016-12-17T00:56:03.120Z,933.12
2016-12-17T00:56:17.558Z,933.15
2016-12-17T00:56:31.917Z,933.14
2016-12-17T00:56:46.301Z,933.11
2016-12-17T00:57:00.719Z,933.13
2016-12-17T00:57:15.083Z,933.08
2016-12-17T00:57:29.457Z,933.11
2016-12-17T00:57:43.900Z,933.11
2016-12-17T00:57:58.308Z,933.1
2016-12-17T00:58:12.728Z,933.09
2016-12-17T00:58:27.131Z,933.07
2016-12-17T00:58:41.492Z,933.08
2016-12-17T00:58:55.907Z,933.05
2016-12-17T00:59:10.315Z,933.05
2016-12-17T00:59:24.701Z,933.04
2016-12-17T00:59:39.065Z,933.03
2016-12-17T00:59:53.442Z,933.05
2016-12-17T01:00:07.809Z,933.06
2016-12-17T01:00:22.203Z,933.08
2016-12-17T01:00:36.575Z,933.13
2016-12-17T01:00:50.971Z,933.06
2016-12-17T01:01:05.421Z,933.05
2016-12-17T01:01:19.792Z,933.04
2016-12-17T01:01:34.233Z,933.08
2016-12-17T01:01:48.600Z,933.04
2016-12-17T01:02:03.048Z,933.07
2016-12-17T01:02:17.440Z,933.07
2016-12-17T01:02:31.836Z,933.05
2016-12-17T01:02:46.235Z,933.07
2016-12-17T01:03:00.658Z,933.05
2016-12-17T01:03:15.044Z,933.09
2016-12-17T01:03:29.422Z,933.07
2016-12-17T01:03:43.848Z,933.04
2016-12-17T01:03:58.227Z,933.06
2016-12-17T01:04:12.610Z,933.07
2016-12-17T01:04:27.058Z,933.06
2016-12-17T01:04:41.731Z,933.05
2016-12-17T01:04:56.163Z,933.07
2016-12-17T01:05:10.534Z,933.06
2016-12-17T01:05:24.892Z,933.07
2016-12-17T01:05:39.272Z,933.03
2016-12-17T01:05:53.704Z,933.08
2016-12-17T01:06:08.181Z,933.09
2016-12-17T01:06:22.578Z,933.06
2016-12-17T01:06:37.011Z,933.03
2016-12-17T01:06:51.375Z,933.1
2016-12-17T01:07:05.757Z,933.05
2016-12-17T01:07:20.185Z,933.03
2016-12-17T01:07:34.584Z,933.13
2016-12-17T01:07:48.979Z,933.07
2016-12-17T01:08:03.382Z,933.1
2016-12-17T01:08:17.773Z,933.06
2016-12-17T01:08:32.163Z,933.09
2016-12-17T01:08:46.625Z,933.05
2016-12-17T01:09:01.042Z,933.06
2016-12-17T01:09:15.457Z,933.1
2016-12-17T01:09:29.942Z,933.06
2016-12-17T01:09:44.328Z,933.03
2016-12-17T01:09:58.722Z,933.04
2016-12-17T01:10:13.163Z,933.09
2016-12-17T01:10:27.533Z,933.07
2016-12-17T01:10:41.935Z,933.01
2016-12-17T01:10:56.431Z,933.06
2016-12-17T01:11:10.815Z,933.03
2016-12-17T01:11:25.226Z,933.05
2016-12-17T01:11:39.668Z,933.05
2016-12-17T01:11:54.106Z,933.04
2016-12-17T01:12:08.436Z,933.04
2016-12-17T01:12:22.799Z,933.05
2016-12-17T01:12:37.187Z,933.09
2016-12-17T01:12:51.606Z,933.08
2016-12-17T01:13:05.986Z,933.25
2016-12-17T01:13:20.430Z,933.19
2016-12-17T01:13:34.811Z,933.01
2016-12-17T01:13:49.249Z,933.03
2016-12-17T01:14:03.631Z,933.05
2016-12-17T01:14:17.967Z,933.02
2016-12-17T01:14:32.322Z,933.03
2016-12-17T01:14:46.701Z,933.08
2016-12-17T01:15:01.139Z,933.06
2016-12-17T01:15:15.461Z,933.04
2016-12-17T01:15:29.855Z,933.07
2016-12-17T01:15:44.227Z,933.06
2016-12-17T01:15:58.664Z,933.03
2016-12-17T01:16:13.020Z,933.03
2016-12-17T01:16:27.349Z,933.01
2016-12-17T01:16:41.779Z,933.04
2016-12-17T01:16:56.229Z,933
2016-12-17T01:17:10.599Z,933.04
2016-12-17T01:17:25.027Z,933.06
2016-12-17T01:17:39.490Z,933.03
2016-12-17T01:17:53.982Z,933.06
2016-12-17T01:18:08.342Z,933.05
2016-12-17T01:18:22.741Z,933
2016-12-17T01:18:37.088Z,932.97
2016-12-17T01:18:51.500Z,933.05
2016-12-17T01:19:05.965Z,933.02
2016-12-17T01:19:20.397Z,933.03
2016-12-17T01:19:34.764Z,933.01
2016-12-17T01:19:49.483Z,933
2016-12-17T01:20:03.919Z,933.02
2016-12-17T01:20:18.324Z,933.01
2016-12-17T01:20:32.685Z,933.02
2016-12-17T01:20:47.089Z,933.05
2016-12-17T01:21:01.479Z,933.02
2016-12-17T01:21:15.881Z,933.05
2016-12-17T01:21:30.227Z,933.03
2016-12-17T01:21:44.674Z,933.02
2016-12-17T01:21:59.109Z,933.04
2016-12-17T01:22:13.515Z,933.06
2016-12-17T01:22:27.928Z,933.04
2016-12-17T01:22:42.349Z,933.01
2016-12-17T01:22:56.661Z,933.06
2016-12-17T01:23:11.016Z,933.03
2016-12-17T01:23:25.389Z,933.06
2016-12-17T01:23:39.786Z,933.02
2016-12-17T01:23:54.236Z,933.04
2016-12-17T01:24:08.619Z,933.01
2016-12-17T01:24:23.045Z,933.04
2016-12-17T01:24:37.456Z,933
2016-12-17T01:24:51.956Z,933.01
2016-12-17T01:25:06.380Z,933.03
2016-12-17T01:25:20.701Z,933.05
2016-12-17T01:25:35.151Z,933.03
2016-12-17T01:25:49.594Z,933.04
2016-12-17T01:26:03.903Z,933.05
2016-12-17T01:26:18.291Z,933.06
2016-12-17T01:26:32.673Z,933.08
2016-12-17T01:26:47.100Z,933.04
2016-12-17T01:27:01.491Z,933.08
2016-12-17T01:27:15.988Z,933.03
2016-12-17T01:27:30.410Z,933.05
2016-12-17T01:27:44.878Z,933.07
2016-12-17T01:27:59.245Z,933.07
2016-12-17T01:28:13.621Z,933.06
2016-12-17T01:28:27.996Z,933.06
2016-12-17T01:28:42.432Z,933.08
2016-12-17T01:28:56.896Z,933.08
2016-12-17T01:29:11.296Z,933.06
2016-12-17T01:29:25.635Z,933.06
2016-12-17T01:29:40.110Z,933.04
2016-12-17T01:29:54.571Z,933.03
2016-12-17T01:30:09.012Z,933.02
2016-12-17T01:30:23.316Z,933.06
2016-12-17T01:30:37.675Z,933.09
2016-12-17T01:30:52.062Z,933.04
2016-12-17T01:31:06.432Z,933.09
2016-12-17T01:31:20.913Z,933.08
2016-12-17T01:31:35.239Z,933.01
2016-12-17T01:31:49.633Z,933.02
2016-12-17T01:32:04.031Z,933.05
2016-12-17T01:32:18.384Z,933.01
2016-12-17T01:32:32.811Z,933.04
2016-12-17T01:32:47.239Z,933.05
2016-12-17T01:33:01.622Z,933.08
2016-12-17T01:33:16.035Z,933.08
2016-12-17T01:33:30.491Z,933.06
2016-12-17T01:33:44.899Z,933.06
2016-12-17T01:33:59.301Z,933.05
2016-12-17T01:34:13.691Z,933.1
2016-12-17T01:34:28.080Z,933.04
2016-12-17T01:34:42.427Z,933.1
2016-12-17T01:34:57.122Z,933.15
2016-12-17T01:35:11.487Z,933.06
2016-12-17T01:35:25.870Z,933.06
2016-12-17T01:35:40.289Z,933.08
2016-12-17T01:35:54.653Z,933.07
2016-12-17T01:36:09.095Z,933.08
2016-12-17T01:36:23.509Z,933.06
2016-12-17T01:36:37.892Z,933.05
2016-12-17T01:36:52.261Z,933.08
2016-12-17T01:37:06.698Z,933.07
2016-12-17T01:37:21.146Z,933.05
2016-12-17T01:37:35.566Z,933.02
2016-12-17T01:37:49.955Z,933.03
2016-12-17T01:38:04.258Z,933.05
2016-12-17T01:38:18.580Z,933.09
2016-12-17T01:38:32.957Z,933.09
2016-12-17T01:38:47.391Z,933.11
2016-12-17T01:39:01.744Z,933.12
2016-12-17T01:39:16.106Z,933.09
2016-12-17T01:39:30.531Z,933.07
2016-12-17T01:39:44.922Z,933.03
2016-12-17T01:39:59.386Z,933.05
2016-12-17T01:40:13.790Z,933.07
2016-12-17T01:40:28.134Z,933.09
2016-12-17T01:40:42.500Z,933.07
2016-12-17T01:40:56.940Z,933.12
2016-12-17T01:41:11.402Z,933.09
2016-12-17T01:41:25.843Z,933.09
2016-12-17T01:41:40.207Z,933.09
2016-12-17T01:41:54.599Z,933.09
2016-12-17T01:42:09.017Z,933.1
2016-12-17T01:42:23.436Z,933.1
2016-12-17T01:42:37.894Z,933.14
2016-12-17T01:42:52.286Z,933.1
2016-12-17T01:43:06.739Z,933.08
2016-12-17T01:43:21.104Z,933.06
2016-12-17T01:43:35.527Z,933.05
2016-12-17T01:43:49.893Z,933.08
2016-12-17T01:44:04.191Z,933.05
2016-12-17T01:44:18.543Z,933.05
2016-12-17T01:44:32.881Z,933.08
2016-12-17T01:44:47.315Z,933.06
2016-12-17T01:45:01.776Z,933.09
2016-12-17T01:45:16.272Z,933.08
2016-12-17T01:45:30.662Z,933.07
2016-12-17T01:45:45.033Z,933.07
2016-12-17T01:45:59.432Z,933.05
2016-12-17T01:46:13.842Z,933.09
2016-12-17T01:46:28.277Z,933.06
2016-12-17T01:46:42.681Z,933.07
2016-12-17T01:46:57.086Z,933.09
2016-12-17T01:47:11.548Z,933.08
2016-12-17T01:47:26.007Z,933.07
2016-12-17T01:47:40.378Z,933.08
2016-12-17T01:47:54.787Z,933.08
2016-12-17T01:48:09.236Z,933.05
2016-12-17T01:48:23.612Z,933.05
2016-12-17T01:48:37.996Z,933.09
2016-12-17T01:48:52.386Z,933.08
2016-12-17T01:49:06.811Z,933.05
2016-12-17T01:49:21.133Z,933.1
2016-12-17T01:49:35.503Z,933.1
2016-12-17T01:49:49.930Z,933.06
2016-12-17T01:50:04.630Z,933.15
2016-12-17T01:50:19.087Z,933.07
2016-12-17T01:50:33.518Z,933.09
2016-12-17T01:50:47.839Z,933.06
2016-12-17T01:51:02.191Z,933.09
2016-12-17T01:51:16.539Z,933.16
2016-12-17T01:51:30.878Z,933.21
2016-12-17T01:51:45.298Z,933.13
2016-12-17T01:51:59.767Z,933.13
2016-12-17T01:52:14.201Z,933.13
2016-12-17T01:52:28.593Z,933.17
2016-12-17T01:52:43.062Z,933.16
2016-12-17T01:52:57.468Z,933.14
2016-12-17T01:53:11.853Z,933.15
2016-12-17T01:53:26.294Z,933.15
2016-12-17T01:53:40.631Z,933.12
2016-12-17T01:53:54.948Z,933.13
2016-12-17T01:54:09.371Z,933.11
2016-12-17T01:54:23.778Z,933.13
2016-12-17T01:54:38.229Z,933.12
2016-12-17T01:54:52.592Z,933.12
2016-12-17T01:55:06.949Z,933.09
2016-12-17T01:55:21.326Z,933.18
2016-12-17T01:55:35.816Z,933.11
2016-12-17T01:55:50.242Z,933.13
2016-12-17T01:56:04.705Z,933.17
2016-12-17T01:56:19.062Z,933.16
2016-12-17T01:56:33.498Z,933.14
2016-12-17T01:56:47.896Z,933.15
2016-12-17T01:57:02.266Z,933.14
2016-12-17T01:57:16.703Z,933.15
2016-12-17T01:57:31.156Z,933.17
2016-12-17T01:57:45.608Z,933.16
2016-12-17T01:57:59.967Z,933.11
2016-12-17T01:58:14.370Z,933.17
2016-12-17T01:58:28.771Z,933.15
2016-12-17T01:58:43.182Z,933.17
2016-12-17T01:58:57.533Z,933.15
2016-12-17T01:59:11.988Z,933.17
2016-12-17T01:59:26.359Z,933.1
2016-12-17T01:59:40.693Z,933.13
2016-12-17T01:59:55.045Z,933.12
2016-12-17T02:00:09.413Z,933.11
2016-12-17T02:00:23.787Z,933.11
2016-12-17T02:00:38.195Z,933.11
2016-12-17T02:00:52.579Z,933.16
2016-12-17T02:01:06.979Z,933.11
2016-12-17T02:01:21.370Z,933.14
2016-12-17T02:01:35.793Z,933.13
2016-12-17T02:01:50.215Z,933.14
2016-12-17T02:02:04.657Z,933.11
2016-12-17T02:02:19.000Z,933.1
2016-12-17T02:02:33.378Z,933.11
2016-12-17T02:02:47.824Z,933.1
2016-12-17T02:03:02.187Z,933.12
2016-12-17T02:03:16.615Z,933.08
2016-12-17T02:03:31.038Z,933.1
2016-12-17T02:03:45.473Z,933.12
2016-12-17T02:03:59.806Z,933.12
2016-12-17T02:04:14.148Z,933.07
2016-12-17T02:04:28.521Z,933.1
2016-12-17T02:04:42.920Z,933.08
2016-12-17T02:04:57.301Z,933.09
2016-12-17T02:05:12.009Z,933.1
2016-12-17T02:05:26.478Z,933.07
2016-12-17T02:05:40.831Z,933.06
2016-12-17T02:05:55.233Z,933.03
2016-12-17T02:06:09.657Z,933.04
2016-12-17T02:06:24.043Z,933.07
2016-12-17T02:06:38.410Z,933.08
2016-12-17T02:06:52.896Z,933.06
2016-12-17T02:07:07.282Z,933.09
2016-12-17T02:07:21.683Z,933.03
2016-12-17T02:07:36.118Z,933.03
2016-12-17T02:07:50.635Z,933.07
2016-12-17T02:08:05.034Z,933.06
2016-12-17T02:08:19.391Z,933.07
2016-12-17T02:08:33.833Z,933.06
2016-12-17T02:08:48.211Z,933.07
2016-12-17T02:09:02.599Z,933.07
2016-12-17T02:09:17.012Z,933.14
2016-12-17T02:09:31.432Z,933.02
2016-12-17T02:09:45.808Z,933.05
2016-12-17T02:10:00.217Z,933.07
2016-12-17T02:10:14.620Z,933.1
2016-12-17T02:10:29.033Z,933.05
2016-12-17T02:10:43.424Z,933.08
2016-12-17T02:10:57.795Z,933.1
2016-12-17T02:11:12.223Z,933.06
2016-12-17T02:11:26.604Z,933.09
2016-12-17T02:11:40.996Z,933.11
2016-12-17T02:11:55.411Z,933.04
2016-12-17T02:12:09.755Z,933.06
2016-12-17T02:12:24.180Z,933.05
2016-12-17T02:12:38.611Z,933.08
2016-12-17T02:12:52.930Z,933.06
2016-12-17T02:13:07.242Z,933.08
2016-12-17T02:13:21.601Z,933.07
2016-12-17T02:13:35.957Z,933.04
2016-12-17T02:13:50.309Z,933.08
2016-12-17T02:14:04.741Z,933.03
2016-12-17T02:14:19.113Z,933.04
2016-12-17T02:14:33.451Z,933.02
2016-12-17T02:14:47.797Z,933.05
2016-12-17T02:15:02.092Z,933.04
2016-12-17T02:15:16.489Z,933.03
2016-12-17T02:15:30.831Z,933.03
2016-12-17T02:15:45.204Z,933.04
2016-12-17T02:15:59.570Z,933.05
2016-12-17T02:16:13.942Z,933.04
2016-12-17T02:16:28.229Z,933.06
2016-12-17T02:16:42.634Z,933.04
2016-12-17T02:16:57.117Z,933.05
2016-12-17T02:17:11.542Z,933.08
2016-12-17T02:17:26.009Z,933.03
2016-12-17T02:17:40.354Z,933.04
2016-12-17T02:17:54.699Z,933.07
2016-12-17T02:18:09.007Z,933.04
2016-12-17T02:18:23.407Z,933.05
2016-12-17T02:18:37.771Z,933.02
2016-12-17T02:18:52.145Z,933.08
2016-12-17T02:19:06.559Z,933.07
2016-12-17T02:19:20.924Z,933.04
2016-12-17T02:19:35.325Z,933.05
2016-12-17T02:19:49.646Z,933.06
2016-12-17T02:20:04.004Z,933
2016-12-17T02:20:18.632Z,933.01
2016-12-17T02:20:33.004Z,933.05
2016-12-17T02:20:47.432Z,933.02
2016-12-17T02:21:01.874Z,933.04
2016-12-17T02:21:16.256Z,933.06
2016-12-17T02:21:30.635Z,933.06
2016-12-17T02:21:44.977Z,933.03
2016-12-17T02:21:59.403Z,933.06
2016-12-17T02:22:13.799Z,933.03
2016-12-17T02:22:28.185Z,933.02
2016-12-17T02:22:42.533Z,933.05
2016-12-17T02:22:56.837Z,933.06
2016-12-17T02:23:11.213Z,933.03
2016-12-17T02:23:25.599Z,933.05
2016-12-17T02:23:39.897Z,933.02
2016-12-17T02:23:54.261Z,932.99
2016-12-17T02:24:08.586Z,933.02
2016-12-17T02:24:22.946Z,933.01
2016-12-17T02:24:37.465Z,932.99
2016-12-17T02:24:51.850Z,933
2016-12-17T02:25:06.280Z,933.04
2016-12-17T02:25:20.639Z,933.06
2016-12-17T02:25:35.019Z,933.02
2016-12-17T02:25:49.353Z,933.04
2016-12-17T02:26:03.689Z,933.03
2016-12-17T02:26:18.099Z,932.95
2016-12-17T02:26:32.481Z,933.02
2016-12-17T02:26:46.871Z,932.98
2016-12-17T02:27:01.306Z,932.97
2016-12-17T02:27:15.704Z,933.01
2016-12-17T02:27:30.168Z,933
2016-12-17T02:27:44.498Z,932.98
2016-12-17T02:27:58.955Z,933.01
2016-12-17T02:28:13.419Z,933
2016-12-17T02:28:27.810Z,933
2016-12-17T02:28:42.215Z,933.03
2016-12-17T02:28:56.600Z,933.03
2016-12-17T02:29:10.961Z,933.04
2016-12-17T02:29:25.356Z,933.01
2016-12-17T02:29:39.810Z,933.02
2016-12-17T02:29:54.186Z,933.06
2016-12-17T02:30:08.567Z,932.99
2016-12-17T02:30:22.985Z,933.02
2016-12-17T02:30:37.335Z,933.02
2016-12-17T02:30:51.717Z,933.01
2016-12-17T02:31:06.059Z,933.03
2016-12-17T02:31:20.410Z,933
2016-12-17T02:31:34.776Z,933.02
2016-12-17T02:31:49.125Z,933.02
2016-12-17T02:32:03.527Z,933
2016-12-17T02:32:17.916Z,933
2016-12-17T02:32:32.303Z,933
2016-12-17T02:32:46.691Z,933
2016-12-17T02:33:01.111Z,932.99
2016-12-17T02:33:15.504Z,933.01
2016-12-17T02:33:29.984Z,932.99
2016-12-17T02:33:44.316Z,933
2016-12-17T02:33:58.742Z,932.99
2016-12-17T02:34:13.110Z,932.99
2016-12-17T02:34:27.477Z,933.03
2016-12-17T02:34:41.907Z,933
2016-12-17T02:34:56.335Z,933.01
2016-12-17T02:35:10.729Z,933.02
2016-12-17T02:35:25.447Z,932.93
2016-12-17T02:35:39.807Z,932.99
2016-12-17T02:35:54.149Z,932.99
2016-12-17T02:36:08.468Z,932.98
2016-12-17T02:36:22.865Z,932.98
2016-12-17T02:36:37.211Z,932.98
2016-12-17T02:36:51.609Z,932.99
2016-12-17T02:37:06.001Z,932.96
2016-12-17T02:37:20.406Z,932.99
2016-12-17T02:37:34.819Z,932.96
2016-12-17T02:37:49.282Z,932.98
2016-12-17T02:38:03.680Z,932.96
2016-12-17T02:38:18.101Z,932.97
2016-12-17T02:38:32.463Z,932.98
2016-12-17T02:38:46.875Z,933
2016-12-17T02:39:01.232Z,932.98
2016-12-17T02:39:15.649Z,932.95
2016-12-17T02:39:30.068Z,932.99
2016-12-17T02:39:44.467Z,932.95
2016-12-17T02:39:58.810Z,933.01
2016-12-17T02:40:13.221Z,933
2016-12-17T02:40:27.629Z,932.95
2016-12-17T02:40:42.109Z,932.99
2016-12-17T02:40:56.527Z,932.95
2016-12-17T02:41:10.877Z,932.94
2016-12-17T02:41:25.208Z,932.94
2016-12-17T02:41:39.593Z,932.94
2016-12-17T02:41:54.021Z,932.95
2016-12-17T02:42:08.457Z,932.93
2016-12-17T02:42:22.860Z,932.95
2016-12-17T02:42:37.275Z,932.94
2016-12-17T02:42:51.681Z,932.94
2016-12-17T02:43:06.089Z,932.91
2016-12-17T02:43:20.504Z,932.92
2016-12-17T02:43:34.775Z,932.92
2016-12-17T02:43:49.087Z,932.92
2016-12-17T02:44:03.510Z,932.91
2016-12-17T02:44:17.858Z,932.93
2016-12-17T02:44:32.266Z,932.92
2016-12-17T02:44:46.690Z,932.9
2016-12-17T02:45:01.239Z,932.93
2016-12-17T02:45:15.721Z,932.9
2016-12-17T02:45:30.127Z,932.9
2016-12-17T02:45:44.544Z,932.91
2016-12-17T02:45:58.977Z,932.89
2016-12-17T02:46:13.444Z,932.91
2016-12-17T02:46:27.914Z,932.91
2016-12-17T02:46:42.313Z,932.9
2016-12-17T02:46:56.774Z,932.92
2016-12-17T02:47:11.172Z,932.93
2016-12-17T02:47:25.554Z,932.94
2016-12-17T02:47:39.957Z,932.96
2016-12-17T02:47:54.339Z,932.97
2016-12-17T02:48:08.729Z,932.94
2016-12-17T02:48:23.077Z,932.91
2016-12-17T02:48:37.404Z,932.93
2016-12-17T02:48:51.751Z,932.96
2016-12-17T02:49:06.164Z,932.93
2016-12-17T02:49:20.640Z,932.93
2016-12-17T02:49:35.025Z,932.9
2016-12-17T02:49:49.427Z,932.92
2016-12-17T02:50:03.846Z,932.92
2016-12-17T02:50:18.267Z,932.91
2016-12-17T02:50:32.977Z,932.93
2016-12-17T02:50:47.384Z,932.95
2016-12-17T02:51:01.771Z,932.92
2016-12-17T02:51:16.217Z,932.89
2016-12-17T02:51:30.601Z,932.9
2016-12-17T02:51:44.999Z,932.9
2016-12-17T02:51:59.394Z,932.9
2016-12-17T02:52:13.780Z,932.96
2016-12-17T02:52:28.137Z,932.87
2016-12-17T02:52:42.568Z,932.94
2016-12-17T02:52:56.966Z,932.9
2016-12-17T02:53:11.361Z,932.86
2016-12-17T02:53:25.821Z,932.93
2016-12-17T02:53:40.226Z,932.9
2016-12-17T02:53:54.691Z,932.93
2016-12-17T02:54:09.071Z,932.89
2016-12-17T02:54:23.492Z,932.87
2016-12-17T02:54:37.862Z,932.87
2016-12-17T02:54:52.243Z,932.89
2016-12-17T02:55:06.623Z,932.9
2016-12-17T02:55:21.004Z,932.89
2016-12-17T02:55:35.378Z,932.9
2016-12-17T02:55:49.817Z,932.9
2016-12-17T02:56:04.212Z,932.89
2016-12-17T02:56:18.578Z,932.9
2016-12-17T02:56:33.011Z,932.89
2016-12-17T02:56:47.430Z,932.86
2016-12-17T02:57:01.848Z,932.87
2016-12-17T02:57:16.263Z,932.84
2016-12-17T02:57:30.605Z,932.86
2016-12-17T02:57:45.017Z,932.85
2016-12-17T02:57:59.309Z,932.89
2016-12-17T02:58:13.717Z,932.85
2016-12-17T02:58:28.087Z,932.86
2016-12-17T02:58:42.454Z,932.83
2016-12-17T02:58:56.867Z,932.84
2016-12-17T02:59:11.275Z,932.85
2016-12-17T02:59:25.698Z,932.83
2016-12-17T02:59:40.157Z,932.79
2016-12-17T02:59:54.519Z,932.82
2016-12-17T03:00:08.897Z,932.81
2016-12-17T03:00:23.303Z,932.79